createdAt,value
2023-05-21T00:02:17.876Z,16.50
2023-05-21T00:04:45.643Z,16.40
2023-05-21T00:07:12.722Z,16.40
2023-05-21T00:09:40.195Z,16.40
2023-05-21T00:12:09.971Z,16.30
2023-05-21T00:14:36.726Z,16.50
2023-05-21T00:17:03.524Z,16.20
2023-05-21T00:19:33.781Z,16.20
2023-05-21T00:22:04.580Z,16.30
2023-05-21T00:24:31.319Z,16.30
2023-05-21T00:26:58.178Z,16.30
2023-05-21T00:29:26.925Z,16.30
2023-05-21T00:31:53.818Z,16.30
2023-05-21T00:34:20.600Z,16.40
2023-05-21T00:36:47.987Z,16.40
2023-05-21T00:39:14.918Z,16.40
2023-05-21T00:41:42.991Z,16.40
2023-05-21T00:44:10.162Z,16.40
2023-05-21T00:46:36.943Z,16.40
2023-05-21T00:49:03.901Z,16.40
2023-05-21T00:51:31.037Z,16.40
2023-05-21T00:53:58.246Z,16.40
2023-05-21T00:56:27.206Z,16.40
2023-05-21T00:58:57.304Z,16.30
2023-05-21T01:01:26.555Z,16.40
2023-05-21T01:03:57.635Z,16.40
2023-05-21T01:06:24.402Z,16.40
2023-05-21T01:08:51.945Z,16.40
2023-05-21T01:11:19.774Z,16.40
2023-05-21T01:13:47.398Z,16.40
2023-05-21T01:16:14.642Z,16.40
2023-05-21T01:18:43.622Z,16.40
2023-05-21T01:21:10.835Z,16.40
2023-05-21T01:23:37.591Z,16.40
2023-05-21T01:26:04.489Z,16.40
2023-05-21T01:28:33.650Z,16.40
2023-05-21T01:31:24.488Z,16.40
2023-05-21T01:33:56.364Z,16.40
2023-05-21T01:36:27.596Z,16.30
2023-05-21T01:38:54.335Z,16.40
2023-05-21T01:41:22.346Z,16.30
2023-05-21T01:43:50.200Z,16.30
2023-05-21T01:46:21.570Z,16.40
2023-05-21T01:48:51.014Z,16.30
2023-05-21T01:51:18.417Z,16.40
2023-05-21T01:53:45.182Z,16.30
2023-05-21T01:56:12.654Z,16.30
2023-05-21T01:58:39.922Z,16.30
2023-05-21T02:01:06.636Z,16.30
2023-05-21T02:03:33.964Z,16.40
2023-05-21T02:06:01.369Z,16.50
2023-05-21T02:08:28.230Z,16.50
2023-05-21T02:10:55.026Z,16.40
2023-05-21T02:13:25.761Z,16.50
2023-05-21T02:15:54.828Z,16.50
2023-05-21T02:18:22.176Z,16.40
2023-05-21T02:20:49.280Z,16.40
2023-05-21T02:23:17.220Z,16.40
2023-05-21T02:25:43.944Z,16.40
2023-05-21T02:28:10.834Z,16.40
2023-05-21T02:30:37.558Z,16.40
2023-05-21T02:33:04.364Z,16.40
2023-05-21T02:35:32.367Z,16.40
2023-05-21T02:37:59.432Z,16.40
2023-05-21T02:40:26.496Z,16.40
2023-05-21T02:42:53.509Z,16.40
2023-05-21T02:45:20.368Z,16.30
2023-05-21T02:47:47.105Z,16.30
2023-05-21T02:50:14.885Z,16.40
2023-05-21T02:52:41.991Z,16.40
2023-05-21T02:55:09.248Z,16.40
2023-05-21T02:57:37.903Z,16.40
2023-05-21T03:00:06.207Z,16.40
2023-05-21T03:02:33.229Z,16.40
2023-05-21T03:05:00.759Z,16.40
2023-05-21T03:07:28.892Z,16.40
2023-05-21T03:09:55.814Z,16.40
2023-05-21T03:12:22.765Z,16.40
2023-05-21T03:14:51.731Z,16.40
2023-05-21T03:17:19.007Z,16.30
2023-05-21T03:19:45.847Z,16.40
2023-05-21T03:22:13.141Z,16.30
2023-05-21T03:24:40.047Z,16.30
2023-05-21T03:27:07.243Z,16.30
2023-05-21T03:29:34.994Z,16.30
2023-05-21T03:32:02.308Z,16.30
2023-05-21T03:34:29.296Z,16.30
2023-05-21T03:36:56.126Z,16.30
2023-05-21T03:39:22.936Z,16.30
2023-05-21T03:41:49.692Z,16.30
2023-05-21T03:44:16.913Z,16.30
2023-05-21T03:46:45.457Z,16.30
2023-05-21T03:49:12.257Z,16.20
2023-05-21T03:51:39.580Z,16.30
2023-05-21T03:54:06.450Z,16.20
2023-05-21T03:56:33.216Z,16.30
2023-05-21T03:58:59.939Z,16.30
2023-05-21T04:01:28.225Z,16.30
2023-05-21T04:03:55.237Z,16.30
2023-05-21T04:06:22.726Z,16.20
2023-05-21T04:08:49.595Z,16.30
2023-05-21T04:11:16.255Z,16.30
2023-05-21T04:13:42.996Z,16.30
2023-05-21T04:16:10.322Z,16.30
2023-05-21T04:18:37.127Z,16.30
2023-05-21T04:21:04.104Z,16.30
2023-05-21T04:23:30.843Z,16.30
2023-05-21T04:25:57.574Z,16.30
2023-05-21T04:28:24.346Z,16.40
2023-05-21T04:30:51.237Z,16.30
2023-05-21T04:33:18.505Z,16.40
2023-05-21T04:35:49.824Z,16.40
2023-05-21T04:38:20.036Z,16.40
2023-05-21T04:40:50.886Z,16.50
2023-05-21T04:43:18.294Z,16.50
2023-05-21T04:45:45.292Z,16.50
2023-05-21T04:48:12.731Z,16.50
2023-05-21T04:50:41.544Z,16.60
2023-05-21T04:53:09.124Z,16.60
2023-05-21T04:55:39.826Z,16.60
2023-05-21T04:58:07.290Z,16.70
2023-05-21T05:00:34.876Z,16.70
2023-05-21T05:03:01.742Z,16.90
2023-05-21T05:05:28.564Z,16.80
2023-05-21T05:07:56.826Z,16.80
2023-05-21T05:10:23.788Z,16.80
2023-05-21T05:12:50.560Z,16.80
2023-05-21T05:15:17.723Z,16.90
2023-05-21T05:17:44.748Z,16.80
2023-05-21T05:20:11.918Z,16.90
2023-05-21T05:22:39.997Z,16.90
2023-05-21T05:25:07.088Z,17.00
2023-05-21T05:27:35.055Z,17.00
2023-05-21T05:30:03.353Z,17.00
2023-05-21T05:32:30.186Z,17.10
2023-05-21T05:34:57.250Z,17.10
2023-05-21T05:37:23.980Z,17.20
2023-05-21T05:39:50.833Z,17.30
2023-05-21T05:42:18.695Z,17.40
2023-05-21T05:44:45.576Z,17.50
2023-05-21T05:47:12.323Z,17.50
2023-05-21T05:49:39.191Z,17.50
2023-05-21T05:52:06.637Z,17.40
2023-05-21T05:54:34.079Z,17.50
2023-05-21T05:57:00.849Z,17.40
2023-05-21T05:59:27.690Z,17.40
2023-05-21T06:01:56.008Z,17.40
2023-05-21T06:04:22.799Z,17.40
2023-05-21T06:06:49.486Z,17.40
2023-05-21T06:09:17.993Z,17.40
2023-05-21T06:11:44.768Z,17.40
2023-05-21T06:14:11.506Z,17.40
2023-05-21T06:16:38.291Z,17.40
2023-05-21T06:19:05.163Z,17.40
2023-05-21T06:21:32.053Z,17.40
2023-05-21T06:23:59.215Z,17.40
2023-05-21T06:26:26.331Z,17.40
2023-05-21T06:28:53.058Z,17.40
2023-05-21T06:31:23.501Z,17.40
2023-05-21T06:33:50.572Z,17.50
2023-05-21T06:36:17.538Z,17.50
2023-05-21T06:38:44.298Z,17.50
2023-05-21T06:41:11.204Z,17.50
2023-05-21T06:43:37.915Z,17.60
2023-05-21T06:46:04.738Z,17.60
2023-05-21T06:48:31.537Z,17.60
2023-05-21T06:50:58.358Z,17.60
2023-05-21T06:53:25.096Z,17.60
2023-05-21T06:55:53.783Z,17.60
2023-05-21T06:58:21.565Z,17.60
2023-05-21T07:00:48.742Z,17.60
2023-05-21T07:03:16.267Z,17.60
2023-05-21T07:05:43.160Z,17.60
2023-05-21T07:08:11.938Z,17.60
2023-05-21T07:10:39.057Z,17.60
2023-05-21T07:13:06.129Z,17.70
2023-05-21T07:15:32.975Z,17.70
2023-05-21T07:17:59.815Z,17.70
2023-05-21T07:20:26.622Z,17.70
2023-05-21T07:22:53.364Z,17.60
2023-05-21T07:25:20.349Z,17.70
2023-05-21T07:27:47.088Z,17.80
2023-05-21T07:30:16.042Z,17.90
2023-05-21T07:32:43.109Z,17.90
2023-05-21T07:35:10.061Z,17.90
2023-05-21T07:37:36.826Z,18.00
2023-05-21T07:40:05.480Z,18.10
2023-05-21T07:42:32.233Z,18.30
2023-05-21T07:44:59.146Z,18.40
2023-05-21T07:47:26.366Z,18.60
2023-05-21T07:49:53.115Z,18.70
2023-05-21T07:52:19.972Z,18.80
2023-05-21T07:54:46.770Z,18.80
2023-05-21T07:57:13.461Z,18.80
2023-05-21T07:59:40.178Z,18.90
2023-05-21T08:02:07.265Z,18.90
2023-05-21T08:04:34.528Z,19.00
2023-05-21T08:07:01.300Z,19.10
2023-05-21T08:09:28.318Z,19.20
2023-05-21T08:11:55.151Z,19.20
2023-05-21T08:14:21.872Z,19.20
2023-05-21T08:16:48.694Z,19.30
2023-05-21T08:19:15.562Z,19.40
2023-05-21T08:21:44.158Z,19.60
2023-05-21T08:24:10.986Z,19.60
2023-05-21T08:26:37.783Z,19.80
2023-05-21T08:29:04.564Z,19.90
2023-05-21T08:31:31.397Z,20.00
2023-05-21T08:33:58.278Z,19.90
2023-05-21T08:36:25.143Z,19.80
2023-05-21T08:38:53.119Z,19.70
2023-05-21T08:41:25.124Z,19.50
2023-05-21T08:44:01.161Z,19.40
2023-05-21T08:46:33.098Z,19.40
2023-05-21T08:49:03.754Z,19.30
2023-05-21T08:51:31.407Z,19.20
2023-05-21T08:54:01.642Z,19.20
2023-05-21T08:56:32.372Z,18.90
2023-05-21T08:58:59.634Z,19.10
2023-05-21T09:01:27.559Z,19.10
2023-05-21T09:04:05.000Z,19.10
2023-05-21T09:06:41.112Z,19.10
2023-05-21T09:09:21.968Z,19.20
2023-05-21T09:11:49.482Z,19.10
2023-05-21T09:14:17.373Z,19.10
2023-05-21T09:16:48.417Z,19.10
2023-05-21T09:19:15.436Z,19.10
2023-05-21T09:21:42.217Z,19.20
2023-05-21T09:24:10.891Z,19.20
2023-05-21T09:26:37.760Z,19.40
2023-05-21T09:29:04.522Z,19.70
2023-05-21T09:31:34.245Z,19.80
2023-05-21T09:34:01.150Z,20.00
2023-05-21T09:36:29.584Z,20.00
2023-05-21T09:38:58.364Z,20.10
2023-05-21T09:41:33.706Z,20.20
2023-05-21T09:44:02.053Z,20.30
2023-05-21T09:46:42.474Z,20.40
2023-05-21T09:49:26.340Z,20.50
2023-05-21T09:51:59.927Z,20.60
2023-05-21T09:54:33.292Z,20.80
2023-05-21T09:57:03.379Z,20.80
2023-05-21T09:59:39.703Z,21.20
2023-05-21T10:02:21.868Z,21.50
2023-05-21T10:04:50.536Z,21.70
2023-05-21T10:07:26.172Z,21.90
2023-05-21T10:09:57.791Z,22.20
2023-05-21T10:12:28.753Z,22.50
2023-05-21T10:15:02.983Z,22.70
2023-05-21T10:17:30.885Z,22.90
2023-05-21T10:19:59.483Z,23.20
2023-05-21T10:22:26.679Z,23.30
2023-05-21T10:24:54.351Z,23.40
2023-05-21T10:27:22.668Z,23.50
2023-05-21T10:29:50.810Z,23.70
2023-05-21T10:32:19.285Z,23.80
2023-05-21T10:34:48.348Z,23.90
2023-05-21T10:37:16.846Z,24.00
2023-05-21T10:39:45.894Z,24.20
2023-05-21T10:42:20.206Z,24.40
2023-05-21T10:45:11.469Z,24.50
2023-05-21T10:48:14.281Z,24.50
2023-05-21T10:51:02.958Z,24.60
2023-05-21T10:53:52.675Z,24.70
2023-05-21T10:56:27.205Z,24.90
2023-05-21T10:59:26.167Z,25.10
2023-05-21T11:01:54.586Z,25.20
2023-05-21T11:04:27.648Z,25.40
2023-05-21T11:06:54.692Z,25.60
2023-05-21T11:09:21.501Z,25.60
2023-05-21T11:11:58.167Z,25.30
2023-05-21T11:14:38.260Z,25.10
2023-05-21T11:17:16.660Z,25.00
2023-05-21T11:19:47.519Z,24.90
2023-05-21T11:22:27.175Z,25.20
2023-05-21T11:24:56.310Z,25.40
2023-05-21T11:27:33.654Z,25.80
2023-05-21T11:30:04.322Z,26.10
2023-05-21T11:32:31.516Z,26.20
2023-05-21T11:35:03.612Z,25.90
2023-05-21T11:37:33.053Z,25.80
2023-05-21T11:40:30.199Z,25.70
2023-05-21T11:42:57.446Z,25.60
2023-05-21T11:45:32.284Z,25.60
2023-05-21T11:48:00.139Z,25.50
2023-05-21T11:50:30.976Z,25.50
2023-05-21T11:52:59.890Z,25.70
2023-05-21T11:55:27.021Z,25.90
2023-05-21T11:57:56.283Z,26.00
2023-05-21T12:00:24.270Z,26.20
2023-05-21T12:02:52.589Z,26.40
2023-05-21T12:05:19.771Z,26.30
2023-05-21T12:07:48.948Z,26.40
2023-05-21T12:10:16.254Z,26.60
2023-05-21T12:12:54.972Z,26.80
2023-05-21T12:15:24.652Z,27.00
2023-05-21T12:17:53.005Z,27.10
2023-05-21T12:20:20.229Z,27.40
2023-05-21T12:22:49.290Z,27.70
2023-05-21T12:25:20.157Z,27.90
2023-05-21T12:27:48.364Z,27.90
2023-05-21T12:30:15.306Z,27.60
2023-05-21T12:32:44.145Z,27.40
2023-05-21T12:35:21.514Z,27.50
2023-05-21T12:37:50.662Z,27.80
2023-05-21T12:40:18.050Z,27.90
2023-05-21T12:42:44.844Z,28.00
2023-05-21T12:45:11.926Z,28.10
2023-05-21T12:47:40.421Z,28.40
2023-05-21T12:50:13.971Z,28.70
2023-05-21T12:52:43.117Z,28.90
2023-05-21T12:55:12.934Z,29.10
2023-05-21T12:57:39.703Z,29.40
2023-05-21T13:00:08.000Z,29.00
2023-05-21T13:02:40.807Z,28.80
2023-05-21T13:05:09.894Z,29.00
2023-05-21T13:07:39.239Z,29.30
2023-05-21T13:10:07.473Z,29.60
2023-05-21T13:12:34.650Z,30.00
2023-05-21T13:15:02.932Z,30.30
2023-05-21T13:17:30.473Z,30.60
2023-05-21T13:20:21.646Z,30.80
2023-05-21T13:22:51.153Z,30.50
2023-05-21T13:25:24.408Z,29.90
2023-05-21T13:27:53.055Z,29.50
2023-05-21T13:30:20.894Z,29.20
2023-05-21T13:32:48.169Z,29.20
2023-05-21T13:35:17.007Z,29.40
2023-05-21T13:37:44.582Z,29.40
2023-05-21T13:40:16.729Z,29.60
2023-05-21T13:42:46.021Z,29.90
2023-05-21T13:45:14.661Z,30.20
2023-05-21T13:47:42.530Z,30.50
2023-05-21T13:50:10.262Z,30.90
2023-05-21T13:52:37.702Z,30.90
2023-05-21T13:55:04.929Z,31.30
2023-05-21T13:57:32.149Z,31.60
2023-05-21T13:59:59.828Z,32.20
2023-05-21T14:02:26.797Z,32.60
2023-05-21T14:04:54.023Z,32.90
2023-05-21T14:07:21.478Z,33.20
2023-05-21T14:09:48.333Z,33.40
2023-05-21T14:12:15.080Z,33.30
2023-05-21T14:14:42.131Z,33.40
2023-05-21T14:17:09.018Z,32.90
2023-05-21T14:19:36.011Z,33.10
2023-05-21T14:22:02.859Z,33.00
2023-05-21T14:24:29.614Z,32.70
2023-05-21T14:26:56.432Z,32.80
2023-05-21T14:29:23.367Z,33.10
2023-05-21T14:31:50.174Z,33.30
2023-05-21T14:34:17.852Z,33.40
2023-05-21T14:36:44.636Z,32.90
2023-05-21T14:39:11.540Z,32.90
2023-05-21T14:41:41.669Z,32.80
2023-05-21T14:44:08.552Z,32.40
2023-05-21T14:46:36.591Z,32.20
2023-05-21T14:49:03.810Z,32.30
2023-05-21T14:51:31.661Z,32.10
2023-05-21T14:53:58.639Z,32.30
2023-05-21T14:56:28.333Z,32.50
2023-05-21T14:58:55.498Z,32.30
2023-05-21T15:01:22.500Z,32.10
2023-05-21T15:03:49.706Z,32.00
2023-05-21T15:06:16.936Z,32.00
2023-05-21T15:08:43.846Z,31.90
2023-05-21T15:11:11.600Z,31.90
2023-05-21T15:13:39.092Z,31.90
2023-05-21T15:16:06.233Z,31.80
2023-05-21T15:18:33.186Z,31.70
2023-05-21T15:21:00.025Z,31.30
2023-05-21T15:23:26.800Z,31.20
2023-05-21T15:25:53.596Z,31.10
2023-05-21T15:28:20.653Z,30.80
2023-05-21T15:30:47.403Z,30.80
2023-05-21T15:33:14.527Z,30.70
2023-05-21T15:35:41.871Z,30.60
2023-05-21T15:38:09.032Z,30.30
2023-05-21T15:40:35.903Z,30.20
2023-05-21T15:43:02.764Z,30.20
2023-05-21T15:45:29.564Z,30.00
2023-05-21T15:47:57.359Z,29.90
2023-05-21T15:50:24.204Z,29.90
2023-05-21T15:52:53.165Z,29.80
2023-05-21T15:55:20.836Z,29.80
2023-05-21T15:57:47.600Z,29.70
2023-05-21T16:00:14.752Z,29.70
2023-05-21T16:02:42.161Z,29.80
2023-05-21T16:05:09.526Z,29.70
2023-05-21T16:07:37.929Z,29.60
2023-05-21T16:10:06.186Z,29.60
2023-05-21T16:12:32.987Z,29.50
2023-05-21T16:14:59.805Z,29.40
2023-05-21T16:17:26.710Z,29.40
2023-05-21T16:19:53.524Z,29.20
2023-05-21T16:22:20.727Z,29.10
2023-05-21T16:24:48.261Z,29.10
2023-05-21T16:27:15.101Z,29.10
2023-05-21T16:29:42.135Z,29.00
2023-05-21T16:32:10.529Z,28.90
2023-05-21T16:34:37.374Z,28.90
2023-05-21T16:37:04.229Z,28.80
2023-05-21T16:39:31.030Z,28.60
2023-05-21T16:41:59.646Z,28.60
2023-05-21T16:44:27.267Z,28.70
2023-05-21T16:46:54.427Z,28.60
2023-05-21T16:49:21.127Z,28.50
2023-05-21T16:51:47.801Z,28.50
2023-05-21T16:54:14.822Z,28.40
2023-05-21T16:56:41.681Z,28.30
2023-05-21T16:59:08.475Z,28.20
2023-05-21T17:01:35.637Z,28.20
2023-05-21T17:04:02.778Z,28.10
2023-05-21T17:06:29.609Z,27.90
2023-05-21T17:08:56.605Z,27.90
2023-05-21T17:11:23.426Z,27.70
2023-05-21T17:13:50.268Z,27.60
2023-05-21T17:16:17.039Z,27.50
2023-05-21T17:18:43.838Z,27.40
2023-05-21T17:21:10.661Z,27.30
2023-05-21T17:23:37.404Z,27.20
2023-05-21T17:26:06.935Z,27.10
2023-05-21T17:28:33.739Z,26.90
2023-05-21T17:31:01.716Z,26.70
2023-05-21T17:33:28.597Z,26.60
2023-05-21T17:35:57.000Z,26.40
2023-05-21T17:38:23.763Z,26.40
2023-05-21T17:40:50.677Z,26.30
2023-05-21T17:43:17.989Z,26.20
2023-05-21T17:45:45.025Z,26.10
2023-05-21T17:48:12.198Z,26.00
2023-05-21T17:50:39.066Z,25.90
2023-05-21T17:53:06.024Z,25.80
2023-05-21T17:55:32.803Z,25.80
2023-05-21T17:57:59.662Z,25.70
2023-05-21T18:00:26.494Z,25.70
2023-05-21T18:02:53.298Z,25.60
2023-05-21T18:05:20.439Z,25.50
2023-05-21T18:07:47.404Z,25.30
2023-05-21T18:10:15.462Z,25.10
2023-05-21T18:12:42.382Z,25.00
2023-05-21T18:15:09.465Z,25.00
2023-05-21T18:17:36.248Z,24.80
2023-05-21T18:20:04.329Z,24.80
2023-05-21T18:22:31.193Z,24.80
2023-05-21T18:24:57.915Z,24.70
2023-05-21T18:27:24.642Z,24.60
2023-05-21T18:29:51.474Z,24.50
2023-05-21T18:32:18.309Z,24.60
2023-05-21T18:34:45.058Z,24.50
2023-05-21T18:37:12.053Z,24.50
2023-05-21T18:39:38.816Z,24.40
2023-05-21T18:44:38.877Z,24.20
2023-05-21T18:47:05.918Z,24.20
2023-05-21T18:49:35.248Z,24.10
2023-05-21T18:52:02.028Z,24.10
2023-05-21T18:54:28.746Z,23.90
2023-05-21T18:56:59.442Z,23.90
2023-05-21T18:59:27.137Z,23.80
2023-05-21T19:01:54.573Z,23.80
2023-05-21T19:04:21.449Z,23.80
2023-05-21T19:06:48.302Z,23.70
2023-05-21T19:09:15.092Z,23.60
2023-05-21T19:11:41.875Z,23.60
2023-05-21T19:14:08.666Z,23.50
2023-05-21T19:16:35.537Z,23.40
2023-05-21T19:19:03.261Z,23.50
2023-05-21T19:21:30.402Z,23.40
2023-05-21T19:23:57.273Z,23.40
2023-05-21T19:26:24.254Z,23.20
2023-05-21T19:28:53.803Z,23.20
2023-05-21T19:31:22.328Z,23.20
2023-05-21T19:33:49.483Z,23.10
2023-05-21T19:36:16.486Z,23.00
2023-05-21T19:38:50.424Z,22.90
2023-05-21T19:41:18.745Z,22.70
2023-05-21T19:43:46.101Z,22.50
2023-05-21T19:46:14.374Z,22.30
2023-05-21T19:48:42.877Z,22.20
2023-05-21T19:51:09.717Z,22.10
2023-05-21T19:53:36.539Z,22.00
2023-05-21T19:56:03.984Z,21.90
2023-05-21T19:58:31.432Z,21.80
2023-05-21T20:00:59.191Z,21.80
2023-05-21T20:03:27.209Z,21.80
2023-05-21T20:05:54.487Z,21.80
2023-05-21T20:08:21.635Z,21.80
2023-05-21T20:10:51.385Z,21.60
2023-05-21T20:13:19.267Z,21.60
2023-05-21T20:15:47.806Z,21.60
2023-05-21T20:18:15.555Z,21.40
2023-05-21T20:20:43.042Z,21.20
2023-05-21T20:23:10.196Z,21.20
2023-05-21T20:25:37.021Z,21.20
2023-05-21T20:28:05.211Z,21.20
2023-05-21T20:30:33.853Z,21.20
2023-05-21T20:33:02.526Z,21.20
2023-05-21T20:35:29.718Z,21.30
2023-05-21T20:37:56.518Z,21.30
2023-05-21T20:40:23.543Z,21.30
2023-05-21T20:42:51.920Z,21.50
2023-05-21T20:45:18.858Z,21.50
2023-05-21T20:47:47.249Z,21.50
2023-05-21T20:50:14.016Z,21.40
2023-05-21T20:52:40.844Z,21.50
2023-05-21T20:55:08.261Z,21.30
2023-05-21T20:57:35.066Z,21.20
2023-05-21T21:00:01.801Z,21.30
2023-05-21T21:02:28.683Z,21.50
2023-05-21T21:04:56.268Z,21.40
2023-05-21T21:07:23.097Z,21.50
2023-05-21T21:09:49.896Z,21.50
2023-05-21T21:14:46.282Z,21.50
2023-05-21T21:17:13.063Z,21.60
2023-05-21T21:19:39.764Z,21.60
2023-05-21T21:22:06.471Z,21.50
2023-05-21T21:24:33.441Z,21.40
2023-05-21T21:27:00.173Z,21.40
2023-05-21T21:29:27.228Z,21.40
2023-05-21T21:31:54.001Z,21.30
2023-05-21T21:34:23.419Z,21.30
2023-05-21T21:36:50.680Z,21.20
2023-05-21T21:39:20.808Z,21.20
2023-05-21T21:41:47.743Z,21.10
2023-05-21T21:44:14.505Z,21.00
2023-05-21T21:46:41.529Z,20.80
2023-05-21T21:49:08.317Z,20.60
2023-05-21T21:51:35.282Z,20.70
2023-05-21T21:54:02.426Z,20.60
2023-05-21T21:56:29.805Z,20.60
2023-05-21T21:58:56.522Z,20.60
2023-05-21T22:01:23.506Z,20.60
2023-05-21T22:03:50.355Z,20.50
2023-05-21T22:06:17.152Z,20.50
2023-05-21T22:08:44.166Z,20.60
2023-05-21T22:11:11.570Z,20.60
2023-05-21T22:13:38.599Z,20.60
2023-05-21T22:16:05.746Z,20.50
2023-05-21T22:18:41.519Z,20.40
2023-05-21T22:21:10.141Z,20.30
2023-05-21T22:23:37.926Z,20.30
2023-05-21T22:26:04.888Z,20.20
2023-05-21T22:28:31.794Z,20.10
2023-05-21T22:30:59.115Z,20.10
2023-05-21T22:33:26.759Z,20.00
2023-05-21T22:35:54.563Z,20.10
2023-05-21T22:38:22.033Z,20.10
2023-05-21T22:40:48.944Z,20.10
2023-05-21T22:43:15.879Z,20.20
2023-05-21T22:45:44.201Z,20.20
2023-05-21T22:48:11.157Z,20.10
2023-05-21T22:50:38.730Z,20.00
2023-05-21T22:53:06.425Z,20.10
2023-05-21T22:55:33.260Z,20.00
2023-05-21T22:58:00.037Z,19.90
2023-05-21T23:00:27.213Z,19.90
2023-05-21T23:02:54.678Z,19.80
2023-05-21T23:05:21.836Z,19.80
2023-05-21T23:07:48.579Z,19.70
2023-05-21T23:10:15.471Z,19.70
2023-05-21T23:12:42.574Z,19.70
2023-05-21T23:15:10.276Z,19.70
2023-05-21T23:17:37.950Z,19.50
2023-05-21T23:20:06.155Z,19.30
2023-05-21T23:22:32.990Z,19.30
2023-05-21T23:24:59.748Z,19.10
2023-05-21T23:27:26.503Z,19.20
2023-05-21T23:29:53.369Z,19.10
2023-05-21T23:32:20.161Z,19.00
2023-05-21T23:34:47.272Z,18.90
2023-05-21T23:37:14.068Z,19.10
2023-05-21T23:39:40.945Z,19.00
2023-05-21T23:42:08.202Z,18.90
2023-05-21T23:44:34.914Z,18.90
2023-05-21T23:47:01.934Z,19.00
2023-05-21T23:49:29.206Z,19.00
2023-05-21T23:51:56.467Z,18.90
2023-05-21T23:54:23.154Z,18.90
2023-05-21T23:56:50.176Z,19.00
2023-05-21T23:59:18.486Z,19.00
